Time;durP1;ratioP1;P1;durP2;ratioP2;P2;SDS_P1;SDS_P2;PMS_P1;PMS_P2;Temp;Humidity;BMP_temperature;BMP_pressure;BME280_temperature;BME280_humidity;BME280_pressure;Samples;Min_cycle;Max_cycle;Signal;HPM_P1;HPM_P2
2021/01/02 00:01:27;;;;;;;17.00;12.88;;;2.10;99.90;;;;;;5012686;28;20184;-82
2021/01/02 00:04:14;;;;;;;20.90;13.60;;;2.10;99.90;;;;;;5012042;28;20556;-81
2021/01/02 00:07:10;;;;;;;18.50;13.85;;;2.10;99.90;;;;;;5012742;28;20255;-82
2021/01/02 00:09:38;;;;;;;21.05;13.57;;;2.10;99.90;;;;;;4996313;28;20173;-81
2021/01/02 00:12:52;;;;;;;19.40;13.43;;;2.10;99.90;;;;;;4995538;28;20176;-82
2021/01/02 00:15:30;;;;;;;22.85;14.65;;;2.10;99.90;;;;;;4995572;28;20243;-82
2021/01/02 00:18:26;;;;;;;20.75;15.52;;;2.10;99.90;;;;;;5012977;28;20295;-82
2021/01/02 00:21:25;;;;;;;24.50;17.38;;;2.10;99.90;;;;;;5012371;28;20257;-82
2021/01/02 00:24:36;;;;;;;27.08;18.63;;;2.20;99.90;;;;;;4983148;28;20391;-82
2021/01/02 00:27:08;;;;;;;27.90;18.65;;;2.20;99.90;;;;;;5009677;28;20189;-82
2021/01/02 00:30:02;;;;;;;25.58;17.85;;;2.20;99.90;;;;;;5013654;28;20173;-82
2021/01/02 00:32:50;;;;;;;28.13;19.10;;;2.20;99.90;;;;;;5012397;28;20208;-82
2021/01/02 00:35:22;;;;;;;25.77;19.38;;;2.20;99.90;;;;;;5011672;28;20176;-82
2021/01/02 00:38:01;;;;;;;23.63;17.40;;;2.20;99.90;;;;;;5013742;28;20192;-82
2021/01/02 00:40:29;;;;;;;24.73;18.23;;;2.20;99.90;;;;;;5013263;28;20180;-82
2021/01/02 00:42:55;;;;;;;22.98;16.13;;;2.20;99.90;;;;;;4995927;28;20197;-82
2021/01/02 00:45:26;;;;;;;24.30;16.80;;;0.70;99.90;;;;;;5011802;28;20184;-82
2021/01/02 00:47:53;;;;;;;20.58;15.30;;;2.30;99.90;;;;;;5011918;28;20200;-82
2021/01/02 00:50:23;;;;;;;23.70;16.80;;;2.20;99.90;;;;;;5011475;28;20272;-82
2021/01/02 00:53:05;;;;;;;20.77;15.50;;;2.20;99.90;;;;;;5012155;28;20563;-82
2021/01/02 00:56:05;;;;;;;21.27;15.15;;;2.20;99.90;;;;;;5011727;28;20205;-81
2021/01/02 00:58:52;;;;;;;20.83;15.52;;;2.20;99.90;;;;;;4933360;29;20211;-82
2021/01/02 01:01:24;;;;;;;21.73;15.50;;;2.20;99.90;;;;;;4932961;29;20171;-81
2021/01/02 01:04:08;;;;;;;22.40;15.27;;;2.20;99.90;;;;;;4932785;29;20203;-82
2021/01/02 01:06:41;;;;;;;22.73;16.63;;;2.20;99.90;;;;;;4917052;29;20359;-82
2021/01/02 01:09:06;;;;;;;25.55;17.27;;;2.30;99.90;;;;;;4933077;29;20215;-82
2021/01/02 01:11:36;;;;;;;22.90;16.30;;;2.30;99.90;;;;;;4933015;29;20172;-82
2021/01/02 01:14:04;;;;;;;24.02;16.17;;;2.30;99.90;;;;;;4933229;29;20674;-81
2021/01/02 01:16:44;;;;;;;20.65;14.90;;;2.30;99.90;;;;;;4932932;29;20231;-82
2021/01/02 01:19:14;;;;;;;22.38;15.63;;;2.30;99.90;;;;;;4932413;29;20263;-82
2021/01/02 01:21:44;;;;;;;21.35;16.45;;;2.30;99.90;;;;;;4932678;29;20200;-82
2021/01/02 01:24:12;;;;;;;20.65;14.63;;;2.30;99.90;;;;;;4932763;29;20343;-82
2021/01/02 01:27:00;;;;;;;18.95;14.95;;;2.30;99.90;;;;;;4917447;29;20671;-82
2021/01/02 01:29:36;;;;;;;23.67;15.77;;;2.30;99.90;;;;;;4933066;29;20199;-82
2021/01/02 01:32:05;;;;;;;21.25;15.43;;;2.30;99.90;;;;;;4916338;29;20175;-82
2021/01/02 01:34:33;;;;;;;24.05;16.05;;;2.30;99.90;;;;;;4959689;28;20181;-82
2021/01/02 01:37:05;;;;;;;22.25;15.85;;;2.30;99.90;;;;;;5012596;28;20619;-82
2021/01/02 01:39:32;;;;;;;20.08;15.02;;;2.30;99.90;;;;;;5012504;28;20175;-81
2021/01/02 01:42:01;;;;;;;23.15;16.33;;;2.50;99.90;;;;;;5012335;28;20216;-82
2021/01/02 01:44:52;;;;;;;23.33;14.90;;;2.10;99.90;;;;;;5011268;28;20177;-82
2021/01/02 01:47:45;;;;;;;23.88;15.52;;;2.20;99.90;;;;;;5012251;28;20193;-82
2021/01/02 01:50:21;;;;;;;20.15;13.60;;;2.20;99.90;;;;;;5008921;28;20200;-82
2021/01/02 01:52:50;;;;;;;21.75;14.57;;;2.30;99.90;;;;;;5010799;28;20234;-82
2021/01/02 01:55:55;;;;;;;19.88;14.40;;;2.10;99.90;;;;;;5011834;28;20260;-82
2021/01/02 01:58:40;;;;;;;22.83;14.75;;;2.30;99.90;;;;;;4993014;28;20644;-82
2021/01/02 02:01:06;;;;;;;19.63;14.25;;;2.30;99.90;;;;;;5010867;28;20180;-82
2021/01/02 02:03:46;;;;;;;20.02;13.52;;;2.10;99.90;;;;;;5010358;28;20710;-81
2021/01/02 02:06:33;;;;;;;19.85;14.70;;;2.30;99.90;;;;;;5012089;28;20169;-81
2021/01/02 02:09:01;;;;;;;18.38;13.65;;;2.30;99.90;;;;;;5010545;28;20204;-82
2021/01/02 02:11:50;;;;;;;19.33;13.65;;;2.40;99.90;;;;;;5011911;28;20235;-82
2021/01/02 02:14:31;;;;;;;19.30;13.18;;;2.30;99.90;;;;;;4997819;28;20263;-81
2021/01/02 02:17:04;;;;;;;18.58;13.48;;;2.30;99.90;;;;;;5013251;28;20464;-81
2021/01/02 02:19:36;;;;;;;18.25;13.45;;;2.30;99.90;;;;;;5015244;28;20169;-81
2021/01/02 02:22:05;;;;;;;18.75;13.07;;;2.10;99.90;;;;;;5014740;28;20651;-82
2021/01/02 02:24:32;;;;;;;16.15;11.85;;;2.30;99.90;;;;;;5015713;28;20244;-81
2021/01/02 02:27:02;;;;;;;19.42;13.52;;;2.30;99.90;;;;;;5015691;28;20180;-82
2021/01/02 02:29:37;;;;;;;16.98;12.90;;;2.30;99.90;;;;;;5015076;28;20178;-82
2021/01/02 02:32:08;;;;;;;18.65;12.65;;;2.10;99.90;;;;;;5015540;28;20188;-82
2021/01/02 02:34:36;;;;;;;19.55;12.40;;;2.30;99.90;;;;;;5015730;28;20169;-82
2021/01/02 02:37:02;;;;;;;18.42;12.70;;;2.20;99.90;;;;;;5014388;28;20445;-82
2021/01/02 02:39:28;;;;;;;18.25;12.45;;;2.50;99.90;;;;;;5014577;28;20177;-82
2021/01/02 02:42:00;;;;;;;18.88;14.00;;;2.30;99.90;;;;;;5015046;28;20177;-82
2021/01/02 02:44:33;;;;;;;18.25;13.30;;;2.30;99.90;;;;;;5015479;28;20173;-81
2021/01/02 02:47:01;;;;;;;19.13;13.05;;;2.20;99.90;;;;;;5013959;28;20553;-82
2021/01/02 02:49:31;;;;;;;18.70;13.25;;;3.00;99.90;;;;;;4981454;28;20181;-81
2021/01/02 02:52:04;;;;;;;20.05;13.15;;;2.50;99.90;;;;;;5015819;28;20227;-82
2021/01/02 02:54:30;;;;;;;18.35;13.45;;;2.50;99.90;;;;;;5015672;28;20216;-82
2021/01/02 02:56:56;;;;;;;17.77;12.95;;;2.30;99.90;;;;;;5014128;28;20217;-82
2021/01/02 02:59:22;;;;;;;19.90;13.88;;;2.30;99.90;;;;;;5013927;28;20181;-81
2021/01/02 03:01:48;;;;;;;20.40;13.93;;;;;;;;;;5013812;28;20181;-82
2021/01/02 03:04:15;;;;;;;18.77;13.75;;;2.10;99.90;;;;;;4997237;28;20180;-82
2021/01/02 03:06:42;;;;;;;18.98;13.35;;;2.40;99.90;;;;;;5015141;28;20221;-82
2021/01/02 03:09:12;;;;;;;17.00;13.00;;;2.30;99.90;;;;;;5015330;28;20199;-81
2021/01/02 03:11:41;;;;;;;17.67;12.98;;;2.30;99.90;;;;;;5015132;28;20169;-82
2021/01/02 03:14:07;;;;;;;18.05;13.50;;;2.30;99.90;;;;;;5014725;28;20200;-81
2021/01/02 03:16:33;;;;;;;18.08;13.00;;;2.30;99.90;;;;;;5013861;28;20217;-82
2021/01/02 03:19:00;;;;;;;20.92;14.40;;;2.30;99.90;;;;;;5013414;28;20201;-81
2021/01/02 03:21:26;;;;;;;19.17;13.63;;;2.20;99.90;;;;;;5013834;28;20177;-81
2021/01/02 03:23:53;;;;;;;19.60;14.32;;;2.20;99.90;;;;;;5013118;28;20355;-82
2021/01/02 03:26:19;;;;;;;20.50;14.75;;;2.30;99.90;;;;;;4997588;28;20180;-81
2021/01/02 03:28:54;;;;;;;22.92;14.60;;;2.50;99.90;;;;;;5013257;28;20567;-82
2021/01/02 03:31:20;;;;;;;21.27;14.30;;;2.30;99.90;;;;;;5014610;28;20177;-82
2021/01/02 03:33:46;;;;;;;18.50;13.77;;;2.50;99.90;;;;;;5012323;28;20189;-82
2021/01/02 03:36:13;;;;;;;19.10;14.00;;;2.30;99.90;;;;;;5013479;28;20598;-81
2021/01/02 03:38:40;;;;;;;22.38;15.18;;;2.30;99.90;;;;;;5013004;28;20251;-81
2021/01/02 03:41:06;;;;;;;20.73;14.73;;;2.60;99.90;;;;;;5013317;28;20177;-82
2021/01/02 03:43:35;;;;;;;19.60;13.93;;;2.30;99.90;;;;;;5014391;28;20284;-82
2021/01/02 03:46:02;;;;;;;21.90;15.50;;;2.40;99.90;;;;;;5014493;28;20169;-82
2021/01/02 03:48:28;;;;;;;21.80;14.68;;;2.30;99.90;;;;;;5014027;28;20188;-81
2021/01/02 03:50:53;;;;;;;21.65;14.38;;;2.30;99.90;;;;;;5014584;28;20174;-82
2021/01/02 03:53:19;;;;;;;23.30;15.40;;;2.20;99.90;;;;;;5012972;28;20193;-82
2021/01/02 03:55:45;;;;;;;22.13;14.43;;;2.30;99.90;;;;;;5013250;28;20217;-82
2021/01/02 03:58:11;;;;;;;23.40;14.65;;;2.10;99.90;;;;;;5013074;28;20569;-82
2021/01/02 04:00:39;;;;;;;22.58;14.70;;;2.30;99.90;;;;;;4996166;28;20719;-81
2021/01/02 04:03:05;;;;;;;23.35;15.68;;;2.40;99.90;;;;;;5012410;28;20280;-82
2021/01/02 04:05:33;;;;;;;22.92;14.25;;;2.20;99.90;;;;;;5012449;28;20594;-81
2021/01/02 04:07:59;;;;;;;25.52;15.77;;;2.40;99.90;;;;;;5012452;28;20703;-82
2021/01/02 04:10:25;;;;;;;21.98;14.35;;;2.30;99.90;;;;;;5012673;28;20177;-81
2021/01/02 04:12:50;;;;;;;21.92;14.88;;;2.30;99.90;;;;;;5014536;28;20193;-82
2021/01/02 04:15:16;;;;;;;21.77;14.63;;;2.20;99.90;;;;;;5012495;28;20183;-81
2021/01/02 04:17:44;;;;;;;20.65;14.45;;;2.30;99.90;;;;;;5012465;28;20292;-82
2021/01/02 04:20:11;;;;;;;21.52;14.52;;;2.30;99.90;;;;;;5013488;28;20174;-82
2021/01/02 04:22:37;;;;;;;20.45;14.65;;;2.40;99.90;;;;;;5012653;28;20547;-82
2021/01/02 04:25:04;;;;;;;20.65;13.73;;;2.30;99.90;;;;;;5011886;28;20232;-82
2021/01/02 04:27:30;;;;;;;19.83;13.98;;;2.30;99.90;;;;;;5013244;28;20239;-82
2021/01/02 04:29:55;;;;;;;19.42;13.65;;;2.30;99.90;;;;;;5013529;28;20547;-81
2021/01/02 04:32:21;;;;;;;21.50;13.48;;;2.40;99.90;;;;;;5013797;28;20193;-82
2021/01/02 04:34:47;;;;;;;22.15;14.18;;;2.70;99.90;;;;;;5011202;28;20711;-82
2021/01/02 04:37:14;;;;;;;21.65;14.18;;;2.40;99.90;;;;;;5013365;28;20212;-81
2021/01/02 04:39:40;;;;;;;24.10;14.27;;;2.30;99.90;;;;;;5013626;28;20239;-81
2021/01/02 04:42:06;;;;;;;23.77;13.90;;;2.40;99.90;;;;;;5013701;28;20275;-82
2021/01/02 04:44:33;;;;;;;21.45;13.80;;;2.20;99.90;;;;;;5012443;28;20276;-81
2021/01/02 04:47:02;;;;;;;21.02;13.82;;;2.40;99.90;;;;;;5013319;28;20177;-82
2021/01/02 04:49:28;;;;;;;21.05;14.32;;;2.40;99.90;;;;;;5011917;28;20181;-82
2021/01/02 04:52:03;;;;;;;20.98;14.48;;;2.40;99.90;;;;;;5013148;28;20162;-82
2021/01/02 04:54:31;;;;;;;23.15;14.02;;;2.40;99.90;;;;;;5013056;28;20188;-82
2021/01/02 04:56:59;;;;;;;21.92;14.85;;;2.40;99.90;;;;;;5011765;28;20286;-82
2021/01/02 04:59:26;;;;;;;22.67;15.18;;;2.40;99.90;;;;;;4995406;28;20180;-82
2021/01/02 05:01:54;;;;;;;21.15;15.75;;;2.40;99.90;;;;;;5011675;28;20178;-82
2021/01/02 05:04:21;;;;;;;24.95;16.25;;;2.40;99.90;;;;;;5011662;28;20670;-82
2021/01/02 05:06:48;;;;;;;23.77;16.23;;;2.40;99.90;;;;;;5012621;28;20638;-82
2021/01/02 05:09:14;;;;;;;22.90;16.60;;;2.40;99.90;;;;;;5012942;28;20185;-81
2021/01/02 05:11:40;;;;;;;23.67;16.65;;;2.40;99.90;;;;;;5011425;28;20181;-81
2021/01/02 05:14:08;;;;;;;21.13;15.93;;;2.30;99.90;;;;;;5011574;28;20193;-82
2021/01/02 05:16:44;;;;;;;27.38;16.98;;;2.40;99.90;;;;;;5012615;28;20651;-82
2021/01/02 05:19:12;;;;;;;22.52;15.35;;;2.40;99.90;;;;;;5011331;28;20201;-81
2021/01/02 05:21:47;;;;;;;25.38;16.33;;;2.40;99.90;;;;;;5011315;28;20177;-82
2021/01/02 05:24:19;;;;;;;22.90;15.60;;;2.40;99.90;;;;;;5011416;28;20200;-82
2021/01/02 05:26:58;;;;;;;22.35;15.90;;;2.40;99.90;;;;;;5010915;28;20177;-82
2021/01/02 05:29:28;;;;;;;26.02;17.20;;;2.40;99.90;;;;;;5011459;28;20177;-82
2021/01/02 05:32:02;;;;;;;24.20;17.77;;;2.40;99.90;;;;;;5012575;28;20640;-82
2021/01/02 05:34:30;;;;;;;25.42;16.98;;;2.40;99.90;;;;;;5011067;28;20206;-82
2021/01/02 05:37:05;;;;;;;25.65;18.25;;;2.40;99.90;;;;;;5012520;28;20308;-82
2021/01/02 05:39:50;;;;;;;25.50;17.95;;;2.40;99.90;;;;;;5012780;28;20224;-81
2021/01/02 05:42:17;;;;;;;25.65;16.95;;;2.40;99.90;;;;;;5011198;28;20223;-82
2021/01/02 05:44:43;;;;;;;26.33;18.40;;;2.50;99.90;;;;;;5011136;28;20173;-82
2021/01/02 05:47:20;;;;;;;26.25;17.95;;;2.40;99.90;;;;;;5010246;28;20200;-82
2021/01/02 05:49:50;;;;;;;25.48;18.30;;;2.40;99.90;;;;;;5010800;28;20169;-82
2021/01/02 05:52:17;;;;;;;28.38;17.88;;;2.40;99.90;;;;;;5010766;28;20269;-81
2021/01/02 05:54:50;;;;;;;25.02;18.13;;;2.40;99.90;;;;;;5011739;28;20631;-82
2021/01/02 05:57:29;;;;;;;25.73;18.55;;;2.40;99.90;;;;;;5010848;28;20244;-82
2021/01/02 05:59:57;;;;;;;28.05;18.40;;;2.40;99.90;;;;;;5010968;28;20267;-82
2021/01/02 06:02:31;;;;;;;25.33;17.58;;;2.40;99.90;;;;;;5012443;28;20192;-82
2021/01/02 06:05:08;;;;;;;28.02;18.55;;;2.40;99.90;;;;;;5012090;28;20175;-81
2021/01/02 06:07:35;;;;;;;27.48;18.23;;;2.40;99.90;;;;;;5010960;28;20694;-82
2021/01/02 06:10:09;;;;;;;21.23;15.55;;;2.40;99.90;;;;;;5011011;28;20181;-82
2021/01/02 06:12:40;;;;;;;22.58;15.20;;;2.40;99.90;;;;;;5012479;28;20243;-82
2021/01/02 06:15:15;;;;;;;25.05;16.15;;;2.40;99.90;;;;;;5010728;28;20224;-81
2021/01/02 06:17:48;;;;;;;21.55;15.63;;;2.40;99.90;;;;;;5012246;28;20244;-82
2021/01/02 06:20:16;;;;;;;20.13;14.68;;;2.40;99.90;;;;;;5011452;28;20173;-82
2021/01/02 06:22:42;;;;;;;21.60;14.80;;;2.40;99.90;;;;;;5012251;28;20200;-82
2021/01/02 06:25:13;;;;;;;18.75;12.93;;;2.30;99.90;;;;;;5010492;28;20236;-82
2021/01/02 06:27:43;;;;;;;20.73;14.63;;;2.30;99.90;;;;;;5010567;28;20563;-82
2021/01/02 06:30:15;;;;;;;17.85;13.43;;;2.60;99.90;;;;;;5010699;28;20173;-81
2021/01/02 06:32:44;;;;;;;18.95;14.15;;;2.30;99.90;;;;;;5011920;28;20189;-81
2021/01/02 06:35:10;;;;;;;17.85;12.90;;;2.30;99.90;;;;;;5010235;28;20170;-81
2021/01/02 06:37:48;;;;;;;17.77;12.43;;;2.80;99.90;;;;;;5011773;28;20232;-82
2021/01/02 06:40:24;;;;;;;18.45;12.98;;;2.30;99.90;;;;;;5011693;28;20694;-81
2021/01/02 06:42:57;;;;;;;19.98;13.73;;;2.40;99.90;;;;;;5011883;28;20193;-82
2021/01/02 06:45:35;;;;;;;17.65;12.65;;;2.30;99.90;;;;;;5011929;28;20165;-81
2021/01/02 06:48:22;;;;;;;17.33;13.52;;;2.30;99.90;;;;;;5009660;28;20658;-81
2021/01/02 06:50:56;;;;;;;17.67;13.20;;;2.20;99.90;;;;;;5011310;28;20201;-82
2021/01/02 06:53:37;;;;;;;17.17;12.80;;;2.20;99.90;;;;;;5010724;28;20263;-82
2021/01/02 06:56:08;;;;;;;19.02;12.63;;;2.20;99.90;;;;;;4993787;28;20209;-82
2021/01/02 06:58:48;;;;;;;18.73;13.52;;;2.20;99.90;;;;;;5013838;28;20216;-82
2021/01/02 07:01:17;;;;;;;20.00;14.02;;;2.10;99.90;;;;;;5015122;28;20538;-82
2021/01/02 07:03:46;;;;;;;21.15;13.63;;;2.30;99.90;;;;;;5014468;28;20216;-82
2021/01/02 07:06:18;;;;;;;17.45;12.93;;;2.40;99.90;;;;;;5013018;28;20663;-81
2021/01/02 07:08:47;;;;;;;18.48;14.02;;;2.20;99.90;;;;;;5013449;28;20224;-82
2021/01/02 07:11:19;;;;;;;18.20;13.88;;;2.30;99.90;;;;;;5013826;28;20247;-82
2021/01/02 07:13:45;;;;;;;17.50;14.07;;;2.30;99.90;;;;;;5013620;28;20570;-82
2021/01/02 07:16:29;;;;;;;19.05;13.32;;;2.30;99.90;;;;;;4997213;28;20225;-82
2021/01/02 07:18:56;;;;;;;20.65;14.25;;;2.30;99.90;;;;;;5014125;28;20282;-82
2021/01/02 07:21:36;;;;;;;20.17;13.75;;;2.40;99.90;;;;;;5013456;28;20174;-81
2021/01/02 07:24:31;;;;;;;19.30;13.02;;;2.40;99.90;;;;;;5014701;28;20216;-82
2021/01/02 07:27:05;;;;;;;18.08;13.25;;;2.20;99.90;;;;;;5014498;28;20530;-82
2021/01/02 07:29:34;;;;;;;18.08;13.10;;;2.30;99.90;;;;;;5014808;28;20643;-83
2021/01/02 07:32:05;;;;;;;21.48;14.25;;;2.30;99.90;;;;;;5013797;28;20173;-81
2021/01/02 07:34:31;;;;;;;21.00;14.80;;;2.60;99.90;;;;;;5012768;28;20431;-80
2021/01/02 07:37:06;;;;;;;19.13;14.20;;;2.30;99.90;;;;;;5013221;28;20216;-79
2021/01/02 07:39:32;;;;;;;19.20;14.07;;;2.30;99.90;;;;;;5013239;28;20173;-79
2021/01/02 07:42:11;;;;;;;19.63;14.48;;;2.40;99.90;;;;;;5014466;28;20252;-79
2021/01/02 07:44:40;;;;;;;21.98;14.65;;;2.50;99.90;;;;;;5014549;28;20173;-79
2021/01/02 07:47:07;;;;;;;23.13;16.10;;;2.40;99.90;;;;;;5013373;28;20173;-79
2021/01/02 07:49:33;;;;;;;24.58;16.95;;;2.30;99.90;;;;;;5013899;28;20166;-79
2021/01/02 07:51:59;;;;;;;27.10;17.92;;;2.50;99.90;;;;;;5014383;28;20571;-79
2021/01/02 07:54:29;;;;;;;28.75;18.00;;;2.30;99.90;;;;;;5013914;28;20177;-79
2021/01/02 07:56:55;;;;;;;27.73;18.70;;;2.40;99.90;;;;;;5012601;28;20208;-79
2021/01/02 07:59:32;;;;;;;30.05;18.85;;;2.30;99.90;;;;;;5013837;28;20215;-79
2021/01/02 08:01:59;;;;;;;29.90;18.58;;;2.30;99.90;;;;;;4995866;28;20267;-78
2021/01/02 08:04:26;;;;;;;27.70;18.17;;;2.30;99.90;;;;;;5013653;28;20166;-79
2021/01/02 08:06:57;;;;;;;27.90;18.70;;;2.10;99.90;;;;;;5014061;28;20336;-79
2021/01/02 08:09:23;;;;;;;31.08;19.67;;;2.10;99.90;;;;;;5012753;28;20173;-79
2021/01/02 08:11:55;;;;;;;23.67;16.95;;;2.10;99.90;;;;;;5013198;28;20252;-78
2021/01/02 08:14:23;;;;;;;26.25;19.30;;;2.20;99.90;;;;;;5043178;28;20713;-78
2021/01/02 08:17:00;;;;;;;26.50;17.92;;;2.30;99.90;;;;;;5031431;28;20212;-79
2021/01/02 08:19:31;;;;;;;29.75;17.48;;;2.20;99.90;;;;;;5053199;28;20168;-79
2021/01/02 08:21:59;;;;;;;28.13;18.15;;;2.20;99.90;;;;;;5036507;28;20218;-81
2021/01/02 08:24:24;;;;;;;26.10;17.92;;;2.10;99.90;;;;;;5035769;28;20259;-78
2021/01/02 08:26:51;;;;;;;25.35;16.67;;;2.10;99.90;;;;;;5040943;28;20260;-79
2021/01/02 08:29:17;;;;;;;21.23;14.35;;;2.60;99.90;;;;;;5033643;28;20172;-79
2021/01/02 08:31:50;;;;;;;23.90;16.13;;;2.10;99.90;;;;;;5033190;28;20558;-78
2021/01/02 08:34:29;;;;;;;25.35;14.70;;;2.10;99.90;;;;;;5033045;28;20175;-79
2021/01/02 08:36:59;;;;;;;21.10;15.00;;;2.00;99.90;;;;;;5034056;28;20266;-79
2021/01/02 08:39:25;;;;;;;20.13;13.50;;;2.20;99.90;;;;;;5015863;28;20531;-79
2021/01/02 08:41:56;;;;;;;18.23;13.18;;;1.90;99.90;;;;;;5032971;28;20178;-81
2021/01/02 08:44:29;;;;;;;20.25;13.35;;;1.90;99.90;;;;;;5015396;28;20289;-78
2021/01/02 08:46:55;;;;;;;17.55;12.52;;;2.00;99.90;;;;;;5014986;28;20172;-77
2021/01/02 08:49:32;;;;;;;16.15;12.30;;;1.90;99.90;;;;;;5032992;28;20570;-78
2021/01/02 08:52:15;;;;;;;19.95;13.18;;;2.20;99.90;;;;;;5032942;28;20173;-80
2021/01/02 08:54:41;;;;;;;17.52;12.20;;;2.00;99.90;;;;;;5015246;28;20214;-78
2021/01/02 08:57:27;;;;;;;17.25;12.27;;;2.10;99.90;;;;;;5014919;28;20240;-78
2021/01/02 09:00:09;;;;;;;17.92;12.30;;;2.10;99.90;;;;;;5032938;28;20199;-79
2021/01/02 09:02:35;;;;;;;17.45;12.65;;;1.90;99.90;;;;;;5032831;28;20598;-79
2021/01/02 09:05:05;;;;;;;16.73;12.02;;;2.10;99.90;;;;;;5014696;28;20541;-79
2021/01/02 09:07:32;;;;;;;14.82;11.10;;;2.20;99.90;;;;;;5014646;28;20602;-79
2021/01/02 09:10:16;;;;;;;16.35;11.98;;;2.20;99.90;;;;;;5014969;28;20207;-80
2021/01/02 09:13:07;;;;;;;18.25;12.90;;;2.20;99.90;;;;;;5014382;28;20489;-78
2021/01/02 09:15:47;;;;;;;18.67;12.50;;;2.20;99.90;;;;;;5012802;28;20189;-79
2021/01/02 09:18:34;;;;;;;20.17;13.68;;;2.20;99.90;;;;;;5012143;28;20213;-79
2021/01/02 09:21:09;;;;;;;17.40;12.45;;;2.20;99.90;;;;;;5023372;28;20212;-79
2021/01/02 09:23:36;;;;;;;21.50;13.68;;;2.10;99.90;;;;;;5013720;28;20196;-77
2021/01/02 09:26:17;;;;;;;17.40;12.43;;;2.20;99.90;;;;;;5031689;28;20191;-78
2021/01/02 09:28:44;;;;;;;18.67;13.15;;;2.20;99.90;;;;;;5042287;28;20661;-78
2021/01/02 09:31:10;;;;;;;19.10;13.18;;;2.30;99.90;;;;;;5024876;28;20208;-77
2021/01/02 09:33:35;;;;;;;21.67;13.68;;;3.00;99.90;;;;;;5038451;28;20223;-77
2021/01/02 09:36:01;;;;;;;20.80;14.48;;;2.20;99.90;;;;;;5043818;28;20217;-78
2021/01/02 09:38:27;;;;;;;21.15;15.00;;;2.30;99.90;;;;;;5041880;28;20184;-78
2021/01/02 09:40:53;;;;;;;25.63;16.23;;;2.30;99.90;;;;;;5022135;28;20176;-78
2021/01/02 09:43:19;;;;;;;24.27;16.42;;;2.30;99.90;;;;;;5042723;28;20199;-77
2021/01/02 09:45:45;;;;;;;21.35;14.57;;;2.30;99.90;;;;;;5026796;28;20206;-78
2021/01/02 09:48:12;;;;;;;15.55;12.10;;;2.40;99.90;;;;;;5043942;28;20665;-78
2021/01/02 09:50:40;;;;;;;18.30;13.25;;;2.40;99.90;;;;;;5038641;28;20194;-78
2021/01/02 09:53:07;;;;;;;17.15;11.63;;;2.40;99.90;;;;;;5035945;28;20196;-78
2021/01/02 09:55:33;;;;;;;16.65;11.95;;;2.40;99.90;;;;;;5030076;28;20547;-78
2021/01/02 09:57:59;;;;;;;14.60;10.85;;;2.40;99.90;;;;;;5037747;28;20203;-76
2021/01/02 10:00:27;;;;;;;14.57;9.88;;;2.30;99.90;;;;;;5021025;28;20187;-78
2021/01/02 10:02:53;;;;;;;14.50;10.70;;;2.30;99.90;;;;;;5043743;28;20208;-77
2021/01/02 10:05:20;;;;;;;15.93;10.52;;;2.40;99.90;;;;;;5045880;28;20164;-77
2021/01/02 10:07:46;;;;;;;14.30;10.07;;;2.40;99.90;;;;;;5038830;28;20690;-78
2021/01/02 10:10:15;;;;;;;13.45;10.25;;;2.40;99.90;;;;;;5038850;28;20245;-78
2021/01/02 10:12:45;;;;;;;16.25;11.18;;;2.40;99.90;;;;;;5039532;28;20192;-78
2021/01/02 10:15:11;;;;;;;14.98;10.98;;;2.40;99.90;;;;;;5045813;28;20244;-78
2021/01/02 10:17:37;;;;;;;16.38;11.40;;;2.40;99.90;;;;;;5022504;28;20570;-78
2021/01/02 10:20:05;;;;;;;16.77;11.10;;;3.10;99.90;;;;;;5013809;28;20172;-77
2021/01/02 10:22:32;;;;;;;17.17;11.80;;;2.70;99.90;;;;;;5014420;28;20215;-80
2021/01/02 10:24:58;;;;;;;20.40;11.57;;;2.20;99.90;;;;;;5034667;28;20204;-79
2021/01/02 10:27:25;;;;;;;19.60;12.10;;;2.50;99.90;;;;;;5020140;28;20196;-79
2021/01/02 10:29:52;;;;;;;18.73;12.45;;;2.50;99.90;;;;;;5021864;28;20196;-79
2021/01/02 10:32:20;;;;;;;14.98;10.77;;;2.60;99.90;;;;;;5023324;28;20421;-79
2021/01/02 10:34:48;;;;;;;15.65;10.15;;;2.60;99.90;;;;;;5045163;28;20192;-79
2021/01/02 10:37:14;;;;;;;17.35;10.75;;;2.60;99.90;;;;;;5019365;28;20291;-79
2021/01/02 10:39:41;;;;;;;13.77;10.48;;;2.60;99.90;;;;;;5017694;28;20183;-79
2021/01/02 10:42:08;;;;;;;14.43;10.45;;;2.50;99.90;;;;;;5017345;28;20196;-79
2021/01/02 10:44:34;;;;;;;14.30;10.75;;;2.40;99.90;;;;;;5017707;28;20199;-80
2021/01/02 10:47:00;;;;;;;15.07;10.50;;;2.60;99.90;;;;;;5037284;28;20181;-79
2021/01/02 10:49:26;;;;;;;15.05;11.10;;;2.60;99.90;;;;;;5046934;28;20246;-77
2021/01/02 10:51:53;;;;;;;19.25;11.23;;;2.40;99.90;;;;;;5042121;28;20176;-78
2021/01/02 10:54:19;;;;;;;16.63;11.02;;;2.30;99.90;;;;;;5032339;28;20165;-79
2021/01/02 10:56:51;;;;;;;15.85;11.13;;;2.70;99.90;;;;;;5052955;28;20204;-79
2021/01/02 10:59:19;;;;;;;16.75;10.73;;;2.40;99.90;;;;;;5054231;28;20172;-79
2021/01/02 11:01:55;;;;;;;14.68;10.80;;;2.60;99.90;;;;;;5037163;28;20254;-79
2021/01/02 11:04:24;;;;;;;19.88;11.65;;;2.70;99.90;;;;;;5034407;28;20175;-80
2021/01/02 11:06:51;;;;;;;19.70;11.52;;;2.50;99.90;;;;;;5034846;28;20248;-80
2021/01/02 11:09:18;;;;;;;15.35;10.85;;;2.70;99.90;;;;;;5017006;28;20173;-79
2021/01/02 11:11:45;;;;;;;14.93;9.50;;;2.80;99.90;;;;;;5035110;28;20643;-80
2021/01/02 11:14:11;;;;;;;14.73;11.38;;;2.70;99.90;;;;;;5034603;28;20196;-79
2021/01/02 11:16:39;;;;;;;16.05;10.27;;;2.70;99.90;;;;;;5034983;28;20309;-81
2021/01/02 11:19:18;;;;;;;15.25;10.05;;;2.70;99.90;;;;;;5034483;28;20188;-80
2021/01/02 11:21:47;;;;;;;14.80;10.60;;;2.60;99.90;;;;;;5035348;28;20168;-78
2021/01/02 11:24:14;;;;;;;12.80;9.48;;;2.60;99.90;;;;;;5034805;28;20247;-79
2021/01/02 11:26:48;;;;;;;14.85;9.85;;;2.50;99.90;;;;;;5027384;28;20177;-80
2021/01/02 11:29:15;;;;;;;13.32;9.23;;;2.40;99.90;;;;;;5032936;28;20276;-80
2021/01/02 11:31:41;;;;;;;12.20;9.05;;;2.40;99.90;;;;;;5034617;28;20192;-80
2021/01/02 11:34:08;;;;;;;15.07;10.10;;;2.40;99.90;;;;;;5034061;28;20223;-80
2021/01/02 11:36:34;;;;;;;13.10;9.77;;;2.40;99.90;;;;;;5034459;28;20212;-81
2021/01/02 11:39:00;;;;;;;13.40;9.82;;;2.30;99.90;;;;;;5034126;28;20215;-80
2021/01/02 11:41:44;;;;;;;13.20;9.90;;;2.30;99.90;;;;;;5034287;28;20168;-81
2021/01/02 11:44:13;;;;;;;16.40;10.60;;;2.40;99.90;;;;;;5033006;28;20200;-80
2021/01/02 11:46:42;;;;;;;14.05;9.88;;;2.40;99.90;;;;;;5032865;28;20176;-80
2021/01/02 11:49:10;;;;;;;13.50;9.15;;;2.30;99.90;;;;;;5032429;28;20613;-80
2021/01/02 11:51:36;;;;;;;13.60;9.75;;;2.50;99.90;;;;;;5034161;28;20169;-81
2021/01/02 11:54:03;;;;;;;11.00;8.15;;;2.70;99.90;;;;;;5034181;28;20304;-81
2021/01/02 11:56:29;;;;;;;14.48;9.77;;;2.50;99.90;;;;;;5023728;28;20216;-81
2021/01/02 11:58:57;;;;;;;12.00;8.55;;;2.60;99.90;;;;;;5026622;28;20191;-83
2021/01/02 12:01:34;;;;;;;10.95;8.75;;;2.40;99.90;;;;;;5034936;28;20234;-83
2021/01/02 12:03:59;;;;;;;10.18;8.18;;;2.50;99.90;;;;;;5034137;28;20260;-83
2021/01/02 12:06:30;;;;;;;11.10;7.63;;;3.40;99.90;;;;;;5015638;28;20228;-83
2021/01/02 12:08:56;;;;;;;14.18;8.85;;;2.60;99.90;;;;;;5015860;28;20196;-81
2021/01/02 12:11:30;;;;;;;13.43;9.15;;;2.60;99.90;;;;;;5013619;28;20219;-81
2021/01/02 12:13:56;;;;;;;11.05;8.30;;;2.70;99.90;;;;;;5015344;28;20203;-79
2021/01/02 12:16:30;;;;;;;12.90;8.98;;;2.50;99.90;;;;;;5015023;28;20209;-79
2021/01/02 12:18:55;;;;;;;12.50;8.77;;;2.70;99.90;;;;;;5033048;28;20275;-78
2021/01/02 12:21:22;;;;;;;11.32;8.60;;;2.70;99.90;;;;;;5019350;28;20207;-79
2021/01/02 12:23:48;;;;;;;14.00;9.02;;;2.70;99.90;;;;;;5035405;28;20195;-80
2021/01/02 12:26:15;;;;;;;12.23;8.90;;;2.80;99.90;;;;;;5033408;28;20161;-80
2021/01/02 12:28:47;;;;;;;12.70;8.63;;;2.80;99.90;;;;;;5014618;28;20537;-81
2021/01/02 12:31:19;;;;;;;14.95;9.57;;;2.90;99.90;;;;;;5033351;28;20168;-80
2021/01/02 12:33:46;;;;;;;14.10;9.68;;;2.90;99.90;;;;;;5032393;28;20560;-79
2021/01/02 12:36:14;;;;;;;13.73;9.30;;;2.90;99.90;;;;;;5015002;28;20216;-79
2021/01/02 12:38:40;;;;;;;12.25;9.07;;;2.90;99.90;;;;;;5032674;28;20677;-80
2021/01/02 12:41:13;;;;;;;12.38;8.55;;;3.00;99.90;;;;;;5015621;28;20267;-82
2021/01/02 12:43:40;;;;;;;14.10;9.60;;;3.00;99.90;;;;;;5015136;28;20184;-81
2021/01/02 12:46:05;;;;;;;13.82;9.80;;;3.00;99.90;;;;;;5033090;28;20177;-82
2021/01/02 12:48:31;;;;;;;18.15;10.50;;;3.10;99.90;;;;;;5032334;28;20195;-81
2021/01/02 12:50:57;;;;;;;14.65;9.95;;;3.10;99.90;;;;;;5015104;28;20267;-80
2021/01/02 12:53:23;;;;;;;14.90;9.63;;;3.10;99.90;;;;;;5014537;28;20331;-81
2021/01/02 12:55:49;;;;;;;14.23;9.45;;;3.10;99.90;;;;;;5032293;28;20180;-81
2021/01/02 12:58:15;;;;;;;13.52;9.50;;;3.00;99.90;;;;;;5032968;28;20199;-78